Aérodrome :
LOGIN :

S'inscrire | Disclaimer

   EN    FR    IT 

 










Légende :    VFR   VFR Marginal   IFR   IFR Intensif   IFR Très Intensif
Visi : 
Plafond : 
>= 8 km
>= 3000ft
5 à 8 km
1000 à 3000 ft
1500m à 5 km
500 à 1000 ft
800 à 1500m
200 à 500 ft
< 800m
< 200 ft
Symboles :   Orages  Brouillard  Fortes neiges  Fortes précipitations  Vent > 20 kt
SIGMETs :   Divers  Orages  Givrage  Turbulence  Onde Orograph.  Cendres Volcan.






- Altitude de l'aérodrome : 604 ft
- Code IATA : LCJ


EPLL - Lodz

DERNIER METAR :
  • 211830Z 10013KT 9999 BKN007 OVC009 07/06 Q1015

METARs EXPIRÉS :
  • 211800Z 10012KT 9999 SCT007 OVC008 07/06 Q1015
  • 211730Z 09013KT 9999 OVC006 07/06 Q1014
  • 211700Z 09013KT 9999 -RA BKN006 07/06 Q1014
  • 211630Z 10012KT 9999 -RA BKN008 07/06 Q1014
  • 211600Z 10013KT 9999 -RA SCT008 BKN009 08/06 Q1014

TAF TAF EPLL
Valide du 21 à 18h jusqu'au 22 à 18h UTC


211730Z 2118/2218 10013KT 9999 BKN013
TEMPO 2118/2206 13018G31KT BKN008
PROB40
TEMPO 2206/2218 13015G28KT
BECMG 2208/2211 SCT025



MET'MAP, la Météo Aéronautique d'un coup d'oeil ! - Copyright ORBIFLY Décembre 2007 - Disclaimer

ORBIFLY MET'MAP TEAM :

Programmation & Développement : Alexandra Zaïnal
Conception & Développement : Baudouin d'Aumeries
Co-Programmation & Développement : Marc-Olivier Méhu
Soutien technique & logistique : Manuel Goepfert

Contact : metmap@orbifly.com




SOURCES & CREDITS :

   NOAA